AirNav   Air Wisconsin pilot careers
 
 1058 users online  

KGEO Brown County Airport
Georgetown, Ohio, USA

GOING TO GEORGETOWN?


FAA INFORMATION EFFECTIVE 19 JULY 2018

Location

FAA Identifier: GEO
Lat/Long: 38-52-55.0041N / 083-52-57.8520W
38-52.916735N / 083-52.964200W
38.8819456 / -83.8827367
(estimated)
Elevation: 957.6 ft. / 291.9 m (surveyed)
Variation: 05W (2000)
From city: 1 mile NE of GEORGETOWN, OH
Time zone: UTC -4 (UTC -5 during Standard Time)
Zip code: 45121

Airport Operations

Airport use: Open to the public
Activation date: 04/1971
Control tower: no
ARTCC: INDIANAPOLIS CENTER
FSS: DAYTON FLIGHT SERVICE STATION
NOTAMs facility: DAY (NOTAM-D service available)
Attendance: UNATNDD
Wind indicator: lighted
Segmented circle: no
Lights: ACTVT MIRL RY 18/36 AND REIL RY 18/36 - CTAF.
Beacon: white-green (lighted land airport)
Operates sunset to sunrise.

Airport Communications

CTAF: 122.9
WX AWOS-3 at I69 (19 nm NW): 127.275 (513-732-6978)
  • APCH/DEP SERVICE PROVIDED BY INDIANAPOLIS ARTCC ON FREQS 135.575/290.5 (MERWYN RCAG).

Nearby radio navigation aids

VOR radial/distance  VOR name  Freq  Var
FLMr059/24.4FALMOUTH VOR/DME117.0004W
MXQr191/33.1MIDWEST VOR/DME112.9004W
CVGr106/39.1CINCINNATI VORTAC117.3004W

 
NDB name  Hdg/Dist  Freq  Var  ID
WEST UNION280/15.035904WAMT .- -- -
SPORTYS131/19.424504WPWF .--. .-- ..-.
HILLSBORO226/24.127805WHOC .... --- -.-.
CINCINNATI132/27.133504WLUK .-.. ..- -.-
MADEIRA137/30.037904WMDE -- -.. .

Airport Services

Fuel available: 100LL UL94
SELF SERVICE FUEL AVBL 24 HRS WITH CREDIT CARD.
Parking: tiedowns
Airframe service: FOR AIRFRAME & POWERPLANT REPAIRS PHONE 937-379-1055.
Bottled oxygen: NONE
Bulk oxygen: NONE

Runway Information

Runway 18/36

Dimensions: 3530 x 65 ft. / 1076 x 20 m
Surface: asphalt, in good condition
Runway edge lights: medium intensity
Runway edge markings: RWY 36 MARKINGS FADED.
RUNWAY 18  RUNWAY 36
Latitude: 38-53.203233N38-52.630235N
Longitude: 083-53.027545W083-52.900865W
Elevation: 955.6 ft.953.3 ft.
Gradient: 0.1%0.1%
Traffic pattern: leftleft
Runway heading: 175 magnetic, 170 true355 magnetic, 350 true
Visual slope indicator: 4-light PAPI on left (3.03 degrees glide path)4-light PAPI on left (3.03 degrees glide path)
Runway end identifier lights: yesyes
Touchdown point: yes, no lightsyes, no lights
Obstructions: 61 ft. trees, 588 ft. from runway, 250 ft. right of centerline, 6:1 slope to clear
24 FT. TREES, 0-160 FM THLD, 170 FT. L.
27 ft. tree, 260 ft. from runway, 237 ft. right of centerline, 2:1 slope to clear
35' TREE, 175' FM, 218' LT

Airport Ownership and Management from official FAA records

Ownership: Publicly-owned
Owner: BROWN CO COMM
BROWN COUNTY COURTHOUSE
GEORGETOWN, OH 45121
Phone 937-378-3956
Manager: STEVE AND SANDY MCKINNEY
8862 AIRPORT ROAD
GEORGETOWN, OH 45121
Phone 937-515-0313
STEVE R. MCKINNEY HOME 937-379-1634; BUS 937-379-1055.

Airport Operational Statistics

Aircraft based on the field: 14
Single engine airplanes: 14
    
Aircraft operations: avg 22/day *
61% local general aviation
37% transient general aviation
2% air taxi
<1% military
* for 12-month period ending 09 July 2016

Additional Remarks

AEROBATIC PRACTICE SFC TO 4500 FT AGL ABOVE RY 18/36.

Instrument Procedures

NOTE: All procedures below are presented as PDF files. If you need a reader for these files, you should download the free Adobe Reader.

NOT FOR NAVIGATION. Please procure official charts for flight.
FAA instrument procedures published for use from 19 July 2018 at 0901Z to 16 August 2018 at 0900Z.

 
IAPs - Instrument Approach Procedures
RNAV (GPS) RWY 36   download (174KB)
VOR/DME-A   download (164KB)
NOTE: Special Take-Off Minimums/Departure Procedures apply   download (164KB)

Other nearby airports with instrument procedures:

KAMT - Alexander Salamon Airport (15 nm E)
I69 - Clermont County Airport (19 nm NW)
KFGX - Fleming-Mason Airport (21 nm S)
KHOC - Highland County Airport (24 nm NE)
K62 - Gene Snyder Airport (26 nm SW)
 
Loc | Ops | Rwys | IFR | FBO | Links
Com | Nav | Svcs | Stats | Notes

City of Findlay
 
Area around KGEO (Brown County Airport)
 
Road maps at: MapQuest Bing Google
 
Aerial photo
WARNING: Photo may not be current or correct
Aerial photo of KGEO (Brown County Airport)
Do you have a better or more recent aerial photo of Brown County Airport that you would like to share? If so, please send us your photo.

 
Sectional chart

 
Airport distance calculator
Flying to Brown County Airport? Find the distance to fly.

From to KGEO

Sunrise and sunset
Times for 21-Jul-2018
 Local
(UTC-4)
 Zulu
(UTC)
Morning civil twilight05:5709:57
Sunrise06:2810:28
Sunset20:5600:56
Evening civil twilight21:2601:26

Current date and time
Zulu (UTC)  21-Jul-2018 22:55:07
Local (UTC-4)  21-Jul-2018 18:55:07
 
METAR
KI69 
19nm NW 
212235Z AUTO 20003KT 10SM SCT012 SCT049 OVC075 23/22 A2975 RMK AO2 T02270224
KFGX 
21nm S 
212235Z AUTO 29008KT 7SM -RA SCT008 BKN033 OVC050 20/20 A2978 RMK AO2 T01970197
KLUK 
28nm NW 
212153Z 19004KT 10SM FEW020 SCT075 BKN090 22/21 A2973 RMK AO2 RAE43 SLP063 P0003 T02220211
KILN 
33nm N 
212154Z AUTO 24005KT 10SM CLR 23/19 A2974 RMK AO2 SLP063 T02280194
KCVG 
38nm W 
212152Z 26006KT 10SM FEW010 FEW070 BKN130 24/21 A2973 RMK AO2 SLP057 T02390211
TAF
KLUK 
28nm NW 
211743Z 2118/2218 22010KT P6SM -SHRA VCTS OVC040CB TEMPO 2118/2122 3SM -TSRA BR OVC028CB FM212200 26006KT P6SM -SHRA VCTS OVC035CB FM220200 26004KT P6SM VCSH OVC018 FM220600 28003KT 5SM BR VCSH OVC009 FM221600 33005KT P6SM -SHRA OVC015
KILN 
33nm N 
211743Z 2118/2218 21010KT P6SM -SHRA VCTS OVC035CB TEMPO 2118/2122 3SM -TSRA BR OVC025CB FM212200 22005KT P6SM -SHRA VCTS OVC035CB FM220200 VRB03KT P6SM VCSH OVC025 FM220400 VRB03KT P6SM VCSH OVC015 FM220700 VRB03KT 5SM BR OVC005 FM221600 04007KT P6SM -SHRA OVC012
NOTAMs
Click for the latest NOTAMs
NOTAMs are issued by the DoD/FAA and will open in a separate window not controlled by AirNav.

 

 
 

FBO, Fuel Providers, and Aircraft Ground Support

  
 Business Name 
 
 Contact 
 
 Services / Description 
 
Fuel Prices
 
Comments
  
Brown County Pilots Association 937-379-1055
no information available

If you are affiliated with Brown County Pilots Association and would like to show here your services, contact info, web link, logo, and more, click here
100LL UL94
SS $5.29 $4.79 
 Updated 21-Jun-2018
 
   1 read write
SS=Self service
Update Fuel Prices
 

Would you like to see your business listed on this page?

 If your business provides an interesting product or service to pilots, flight crews, aircraft, or users of the Brown County Airport, you should consider listing it here.  To start the listing process, click on the button below
 
Add a business
 

Other Pages about Brown County Airport

Update a link
 
Copyright © AirNav, LLC. All rights reserved. Privacy Policy  Contact